Terminal Aerodrome Forecast
Issued by NWS

Home | Current Version | Previous Version | Text Only | Print | Product List | Glossary On
Versions: 1 2 3 4 5 6 7 8 9 10 11 12 13
918
FTUS43 KSGF 101125
TAFJLN
TAF
KJLN 101125Z 1012/1112 20005KT P6SM BKN100
     FM101600 22012G20KT P6SM SCT120
     FM110200 24008KT P6SM SCT120=

USA.gov is the U.S. government's official web portal to all federal, state and local government web resources and services.